sensor_id;sensor_type;location;lat;lon;timestamp;pressure;altitude;pressure_sealevel;temperature;humidity
11444;BME280;5778;47.856;12.154;2023-07-31T00:00:23;96495.66;;;18.52;100.00
11444;BME280;5778;47.856;12.154;2023-07-31T00:02:50;96494.88;;;18.52;100.00
11444;BME280;5778;47.856;12.154;2023-07-31T00:05:17;96496.47;;;18.53;100.00
11444;BME280;5778;47.856;12.154;2023-07-31T00:07:44;96499.25;;;18.48;100.00
11444;BME280;5778;47.856;12.154;2023-07-31T00:10:12;96496.66;;;18.43;100.00
11444;BME280;5778;47.856;12.154;2023-07-31T00:12:41;96503.94;;;18.42;100.00
11444;BME280;5778;47.856;12.154;2023-07-31T00:15:14;96503.06;;;18.47;100.00
11444;BME280;5778;47.856;12.154;2023-07-31T00:17:44;96505.53;;;18.43;100.00
11444;BME280;5778;47.856;12.154;2023-07-31T00:20:13;96493.44;;;18.41;100.00
11444;BME280;5778;47.856;12.154;2023-07-31T00:22:43;96493.44;;;18.41;100.00
11444;BME280;5778;47.856;12.154;2023-07-31T00:25:11;96499.34;;;18.43;100.00
11444;BME280;5778;47.856;12.154;2023-07-31T00:27:38;96486.78;;;18.38;100.00
11444;BME280;5778;47.856;12.154;2023-07-31T00:30:14;96492.19;;;18.38;100.00
11444;BME280;5778;47.856;12.154;2023-07-31T00:32:43;96484.88;;;18.39;100.00
11444;BME280;5778;47.856;12.154;2023-07-31T00:35:10;96486.63;;;18.30;100.00
11444;BME280;5778;47.856;12.154;2023-07-31T00:37:40;96483.38;;;18.33;100.00
11444;BME280;5778;47.856;12.154;2023-07-31T00:40:12;96479.00;;;18.37;100.00
11444;BME280;5778;47.856;12.154;2023-07-31T00:42:42;96483.88;;;18.35;100.00
11444;BME280;5778;47.856;12.154;2023-07-31T00:45:09;96484.19;;;18.33;100.00
11444;BME280;5778;47.856;12.154;2023-07-31T00:47:38;96471.28;;;18.30;100.00
11444;BME280;5778;47.856;12.154;2023-07-31T00:50:07;96479.88;;;18.32;100.00
11444;BME280;5778;47.856;12.154;2023-07-31T00:52:38;96481.78;;;18.32;100.00
11444;BME280;5778;47.856;12.154;2023-07-31T00:55:08;96473.75;;;18.27;100.00
11444;BME280;5778;47.856;12.154;2023-07-31T00:57:39;96476.41;;;18.13;100.00
11444;BME280;5778;47.856;12.154;2023-07-31T01:00:08;96468.72;;;18.07;100.00
11444;BME280;5778;47.856;12.154;2023-07-31T01:02:38;96463.13;;;18.03;100.00
11444;BME280;5778;47.856;12.154;2023-07-31T01:05:08;96466.19;;;17.97;100.00
11444;BME280;5778;47.856;12.154;2023-07-31T01:07:45;96470.53;;;17.79;100.00
11444;BME280;5778;47.856;12.154;2023-07-31T01:10:23;96458.09;;;17.83;100.00
11444;BME280;5778;47.856;12.154;2023-07-31T01:12:55;96454.81;;;17.86;100.00
11444;BME280;5778;47.856;12.154;2023-07-31T01:15:23;96455.72;;;17.82;100.00
11444;BME280;5778;47.856;12.154;2023-07-31T01:17:50;96458.03;;;17.70;100.00
11444;BME280;5778;47.856;12.154;2023-07-31T01:20:21;96451.75;;;17.61;100.00
11444;BME280;5778;47.856;12.154;2023-07-31T01:23:13;96454.91;;;17.63;100.00
11444;BME280;5778;47.856;12.154;2023-07-31T01:26:03;96450.09;;;17.46;100.00
11444;BME280;5778;47.856;12.154;2023-07-31T01:28:37;96436.44;;;17.43;100.00
11444;BME280;5778;47.856;12.154;2023-07-31T01:31:09;96434.53;;;17.43;100.00
11444;BME280;5778;47.856;12.154;2023-07-31T01:33:39;96436.47;;;17.38;100.00
11444;BME280;5778;47.856;12.154;2023-07-31T01:36:07;96429.47;;;17.37;100.00
11444;BME280;5778;47.856;12.154;2023-07-31T01:38:34;96427.97;;;17.31;100.00
11444;BME280;5778;47.856;12.154;2023-07-31T01:41:03;96426.16;;;17.26;100.00
11444;BME280;5778;47.856;12.154;2023-07-31T01:43:29;96423.81;;;17.20;100.00
11444;BME280;5778;47.856;12.154;2023-07-31T01:45:56;96433.41;;;16.89;100.00
11444;BME280;5778;47.856;12.154;2023-07-31T01:48:23;96416.56;;;17.02;100.00
11444;BME280;5778;47.856;12.154;2023-07-31T01:50:50;96422.81;;;16.97;100.00
11444;BME280;5778;47.856;12.154;2023-07-31T01:53:17;96424.69;;;16.97;100.00
11444;BME280;5778;47.856;12.154;2023-07-31T01:55:44;96419.56;;;16.77;100.00
11444;BME280;5778;47.856;12.154;2023-07-31T01:58:13;96417.53;;;16.69;100.00
11444;BME280;5778;47.856;12.154;2023-07-31T02:00:39;96422.19;;;16.82;100.00
11444;BME280;5778;47.856;12.154;2023-07-31T02:03:06;96420.16;;;16.74;100.00
11444;BME280;5778;47.856;12.154;2023-07-31T02:05:33;96418.09;;;16.66;100.00
11444;BME280;5778;47.856;12.154;2023-07-31T02:08:00;96412.63;;;16.52;100.00
11444;BME280;5778;47.856;12.154;2023-07-31T02:10:28;96413.00;;;16.46;100.00
11444;BME280;5778;47.856;12.154;2023-07-31T02:12:55;96416.81;;;16.40;100.00
11444;BME280;5778;47.856;12.154;2023-07-31T02:15:24;96413.16;;;16.54;100.00
11444;BME280;5778;47.856;12.154;2023-07-31T02:17:51;96404.75;;;16.61;100.00
11444;BME280;5778;47.856;12.154;2023-07-31T02:20:18;96405.03;;;16.36;100.00
11444;BME280;5778;47.856;12.154;2023-07-31T02:22:45;96403.25;;;16.50;100.00
11444;BME280;5778;47.856;12.154;2023-07-31T02:25:12;96403.84;;;16.47;100.00
11444;BME280;5778;47.856;12.154;2023-07-31T02:27:39;96412.34;;;16.54;100.00
11444;BME280;5778;47.856;12.154;2023-07-31T02:30:07;96416.56;;;16.60;100.00
11444;BME280;5778;47.856;12.154;2023-07-31T02:32:35;96418.16;;;16.61;100.00
11444;BME280;5778;47.856;12.154;2023-07-31T02:35:03;96412.00;;;16.60;100.00
11444;BME280;5778;47.856;12.154;2023-07-31T02:37:30;96414.34;;;16.67;100.00
11444;BME280;5778;47.856;12.154;2023-07-31T02:39:57;96414.03;;;16.68;100.00
11444;BME280;5778;47.856;12.154;2023-07-31T02:42:27;96410.28;;;16.69;100.00
11444;BME280;5778;47.856;12.154;2023-07-31T02:44:54;96401.72;;;16.67;100.00
11444;BME280;5778;47.856;12.154;2023-07-31T02:47:21;96399.97;;;16.58;100.00
11444;BME280;5778;47.856;12.154;2023-07-31T02:49:49;96407.03;;;16.49;100.00
11444;BME280;5778;47.856;12.154;2023-07-31T02:52:16;96406.31;;;16.43;100.00
11444;BME280;5778;47.856;12.154;2023-07-31T02:54:44;96396.41;;;16.39;100.00
11444;BME280;5778;47.856;12.154;2023-07-31T02:57:11;96395.38;;;16.35;100.00
11444;BME280;5778;47.856;12.154;2023-07-31T02:59:38;96396.59;;;16.24;100.00
11444;BME280;5778;47.856;12.154;2023-07-31T03:02:05;96396.75;;;16.32;100.00
11444;BME280;5778;47.856;12.154;2023-07-31T03:04:32;96402.63;;;16.34;100.00
11444;BME280;5778;47.856;12.154;2023-07-31T03:07:00;96401.81;;;16.34;100.00
11444;BME280;5778;47.856;12.154;2023-07-31T03:09:27;96401.31;;;16.32;100.00
11444;BME280;5778;47.856;12.154;2023-07-31T03:11:54;96393.19;;;16.37;100.00
11444;BME280;5778;47.856;12.154;2023-07-31T03:14:21;96386.78;;;16.33;100.00
11444;BME280;5778;47.856;12.154;2023-07-31T03:16:48;96393.25;;;16.32;100.00
11444;BME280;5778;47.856;12.154;2023-07-31T03:19:15;96395.06;;;16.36;100.00
11444;BME280;5778;47.856;12.154;2023-07-31T03:21:42;96381.97;;;16.35;100.00
11444;BME280;5778;47.856;12.154;2023-07-31T03:24:10;96379.94;;;16.22;100.00
11444;BME280;5778;47.856;12.154;2023-07-31T03:26:37;96378.47;;;16.11;100.00
11444;BME280;5778;47.856;12.154;2023-07-31T03:29:06;96369.47;;;16.02;100.00
11444;BME280;5778;47.856;12.154;2023-07-31T03:31:34;96367.16;;;15.90;100.00
11444;BME280;5778;47.856;12.154;2023-07-31T03:34:01;96381.97;;;15.83;100.00
11444;BME280;5778;47.856;12.154;2023-07-31T03:36:29;96378.22;;;15.84;100.00
11444;BME280;5778;47.856;12.154;2023-07-31T03:38:56;96382.78;;;15.83;100.00
11444;BME280;5778;47.856;12.154;2023-07-31T03:41:25;96381.41;;;15.86;100.00
11444;BME280;5778;47.856;12.154;2023-07-31T03:43:52;96388.38;;;15.87;100.00
11444;BME280;5778;47.856;12.154;2023-07-31T03:46:21;96381.88;;;15.93;100.00
11444;BME280;5778;47.856;12.154;2023-07-31T03:48:48;96382.97;;;15.92;100.00
11444;BME280;5778;47.856;12.154;2023-07-31T03:51:16;96386.56;;;15.82;100.00
11444;BME280;5778;47.856;12.154;2023-07-31T03:53:43;96391.84;;;15.87;100.00
11444;BME280;5778;47.856;12.154;2023-07-31T03:56:10;96393.75;;;15.87;100.00
11444;BME280;5778;47.856;12.154;2023-07-31T03:58:38;96394.53;;;15.87;100.00
11444;BME280;5778;47.856;12.154;2023-07-31T04:01:06;96396.38;;;15.92;100.00
11444;BME280;5778;47.856;12.154;2023-07-31T04:03:33;96397.41;;;15.96;100.00
11444;BME280;5778;47.856;12.154;2023-07-31T04:06:00;96388.50;;;16.00;100.00
11444;BME280;5778;47.856;12.154;2023-07-31T04:08:27;96388.75;;;16.04;100.00
11444;BME280;5778;47.856;12.154;2023-07-31T04:10:53;96387.59;;;16.10;100.00
11444;BME280;5778;47.856;12.154;2023-07-31T04:13:21;96382.47;;;16.13;100.00
11444;BME280;5778;47.856;12.154;2023-07-31T04:15:50;96388.59;;;16.19;100.00
11444;BME280;5778;47.856;12.154;2023-07-31T04:18:17;96387.16;;;16.26;100.00
11444;BME280;5778;47.856;12.154;2023-07-31T04:20:44;96380.66;;;16.32;100.00
11444;BME280;5778;47.856;12.154;2023-07-31T04:23:10;96392.97;;;16.33;100.00
11444;BME280;5778;47.856;12.154;2023-07-31T04:25:37;96382.47;;;16.37;100.00
11444;BME280;5778;47.856;12.154;2023-07-31T04:28:04;96381.88;;;16.45;100.00
11444;BME280;5778;47.856;12.154;2023-07-31T04:30:31;96374.59;;;16.45;100.00
11444;BME280;5778;47.856;12.154;2023-07-31T04:32:59;96381.78;;;16.50;100.00
11444;BME280;5778;47.856;12.154;2023-07-31T04:35:26;96373.28;;;16.43;100.00
11444;BME280;5778;47.856;12.154;2023-07-31T04:37:54;96376.66;;;16.30;100.00
11444;BME280;5778;47.856;12.154;2023-07-31T04:40:20;96367.44;;;16.41;100.00
11444;BME280;5778;47.856;12.154;2023-07-31T04:42:47;96370.31;;;16.44;100.00
11444;BME280;5778;47.856;12.154;2023-07-31T04:45:14;96364.53;;;16.32;100.00
11444;BME280;5778;47.856;12.154;2023-07-31T04:47:41;96362.09;;;16.36;100.00
11444;BME280;5778;47.856;12.154;2023-07-31T04:50:09;96363.66;;;16.42;100.00
11444;BME280;5778;47.856;12.154;2023-07-31T04:52:36;96371.72;;;16.37;100.00
11444;BME280;5778;47.856;12.154;2023-07-31T04:55:04;96373.50;;;16.23;100.00
11444;BME280;5778;47.856;12.154;2023-07-31T04:57:30;96375.84;;;16.29;100.00
11444;BME280;5778;47.856;12.154;2023-07-31T04:59:57;96370.03;;;16.22;100.00
11444;BME280;5778;47.856;12.154;2023-07-31T05:02:24;96368.59;;;16.30;100.00
11444;BME280;5778;47.856;12.154;2023-07-31T05:04:51;96367.34;;;16.22;100.00
11444;BME280;5778;47.856;12.154;2023-07-31T05:07:19;96361.81;;;16.14;100.00
11444;BME280;5778;47.856;12.154;2023-07-31T05:09:46;96362.31;;;16.16;100.00
11444;BME280;5778;47.856;12.154;2023-07-31T05:12:12;96358.25;;;16.18;100.00
11444;BME280;5778;47.856;12.154;2023-07-31T05:14:39;96361.91;;;16.04;100.00
11444;BME280;5778;47.856;12.154;2023-07-31T05:17:06;96364.81;;;16.31;100.00
11444;BME280;5778;47.856;12.154;2023-07-31T05:19:33;96364.56;;;16.56;100.00
11444;BME280;5778;47.856;12.154;2023-07-31T05:22:00;96359.13;;;16.79;100.00
11444;BME280;5778;47.856;12.154;2023-07-31T05:24:28;96351.66;;;16.95;100.00
11444;BME280;5778;47.856;12.154;2023-07-31T05:26:55;96359.56;;;16.86;100.00
11444;BME280;5778;47.856;12.154;2023-07-31T05:29:22;96364.84;;;17.10;100.00
11444;BME280;5778;47.856;12.154;2023-07-31T05:31:48;96360.06;;;17.44;100.00
11444;BME280;5778;47.856;12.154;2023-07-31T05:34:15;96360.69;;;17.54;100.00
11444;BME280;5778;47.856;12.154;2023-07-31T05:36:42;96366.69;;;17.65;100.00
11444;BME280;5778;47.856;12.154;2023-07-31T05:39:09;96369.41;;;17.78;100.00
11444;BME280;5778;47.856;12.154;2023-07-31T05:41:37;96365.94;;;17.91;100.00
11444;BME280;5778;47.856;12.154;2023-07-31T05:44:04;96365.06;;;18.23;100.00
11444;BME280;5778;47.856;12.154;2023-07-31T05:46:30;96361.41;;;18.46;100.00
11444;BME280;5778;47.856;12.154;2023-07-31T05:48:58;96372.06;;;18.37;100.00
11444;BME280;5778;47.856;12.154;2023-07-31T05:51:26;96366.47;;;18.61;100.00
11444;BME280;5778;47.856;12.154;2023-07-31T05:53:53;96361.28;;;18.78;100.00
11444;BME280;5778;47.856;12.154;2023-07-31T05:56:20;96365.28;;;18.67;100.00
11444;BME280;5778;47.856;12.154;2023-07-31T05:58:49;96360.41;;;18.55;100.00
11444;BME280;5778;47.856;12.154;2023-07-31T06:01:16;96350.34;;;18.47;100.00
11444;BME280;5778;47.856;12.154;2023-07-31T06:03:43;96347.34;;;18.49;100.00
11444;BME280;5778;47.856;12.154;2023-07-31T06:06:11;96341.53;;;18.69;100.00
11444;BME280;5778;47.856;12.154;2023-07-31T06:08:39;96348.28;;;18.93;100.00
11444;BME280;5778;47.856;12.154;2023-07-31T06:11:07;96349.31;;;19.06;100.00
11444;BME280;5778;47.856;12.154;2023-07-31T06:13:34;96346.91;;;19.18;100.00
11444;BME280;5778;47.856;12.154;2023-07-31T06:16:03;96355.38;;;18.89;100.00
11444;BME280;5778;47.856;12.154;2023-07-31T06:18:31;96352.38;;;18.91;100.00
11444;BME280;5778;47.856;12.154;2023-07-31T06:20:58;96350.81;;;19.12;100.00
11444;BME280;5778;47.856;12.154;2023-07-31T06:23:25;96343.44;;;19.04;100.00
11444;BME280;5778;47.856;12.154;2023-07-31T06:25:52;96344.22;;;19.18;100.00
11444;BME280;5778;47.856;12.154;2023-07-31T06:28:19;96337.91;;;19.22;100.00
11444;BME280;5778;47.856;12.154;2023-07-31T06:30:46;96349.13;;;19.60;100.00
11444;BME280;5778;47.856;12.154;2023-07-31T06:33:14;96339.25;;;19.55;100.00
11444;BME280;5778;47.856;12.154;2023-07-31T06:35:41;96345.34;;;19.61;100.00
11444;BME280;5778;47.856;12.154;2023-07-31T06:38:08;96345.75;;;19.54;100.00
11444;BME280;5778;47.856;12.154;2023-07-31T06:40:35;96343.00;;;19.46;100.00
11444;BME280;5778;47.856;12.154;2023-07-31T06:43:01;96347.88;;;19.22;100.00
11444;BME280;5778;47.856;12.154;2023-07-31T06:45:33;96345.09;;;19.49;100.00
11444;BME280;5778;47.856;12.154;2023-07-31T06:48:00;96342.44;;;19.35;100.00
11444;BME280;5778;47.856;12.154;2023-07-31T06:50:29;96340.25;;;19.37;100.00
11444;BME280;5778;47.856;12.154;2023-07-31T06:52:56;96353.69;;;19.51;100.00
11444;BME280;5778;47.856;12.154;2023-07-31T06:55:23;96354.53;;;19.38;100.00
11444;BME280;5778;47.856;12.154;2023-07-31T06:57:52;96359.91;;;19.38;100.00
11444;BME280;5778;47.856;12.154;2023-07-31T07:00:20;96362.66;;;19.46;100.00
11444;BME280;5778;47.856;12.154;2023-07-31T07:02:47;96361.19;;;19.40;100.00
11444;BME280;5778;47.856;12.154;2023-07-31T07:05:15;96368.88;;;19.69;100.00
11444;BME280;5778;47.856;12.154;2023-07-31T07:07:43;96358.59;;;19.79;100.00
11444;BME280;5778;47.856;12.154;2023-07-31T07:10:10;96358.34;;;19.89;100.00
11444;BME280;5778;47.856;12.154;2023-07-31T07:12:37;96354.09;;;19.97;100.00
11444;BME280;5778;47.856;12.154;2023-07-31T07:15:06;96353.50;;;20.00;100.00
11444;BME280;5778;47.856;12.154;2023-07-31T07:17:33;96352.25;;;20.06;100.00
11444;BME280;5778;47.856;12.154;2023-07-31T07:20:00;96349.19;;;20.21;100.00
11444;BME280;5778;47.856;12.154;2023-07-31T07:22:28;96350.25;;;20.20;100.00
11444;BME280;5778;47.856;12.154;2023-07-31T07:24:57;96340.97;;;20.34;100.00
11444;BME280;5778;47.856;12.154;2023-07-31T07:27:23;96334.41;;;20.83;100.00
11444;BME280;5778;47.856;12.154;2023-07-31T07:29:51;96337.47;;;21.07;100.00
11444;BME280;5778;47.856;12.154;2023-07-31T07:32:18;96346.69;;;21.23;100.00
11444;BME280;5778;47.856;12.154;2023-07-31T07:34:47;96339.22;;;21.20;100.00
11444;BME280;5778;47.856;12.154;2023-07-31T07:37:14;96330.47;;;21.06;100.00
11444;BME280;5778;47.856;12.154;2023-07-31T07:39:41;96331.75;;;21.00;100.00
11444;BME280;5778;47.856;12.154;2023-07-31T07:42:10;96338.88;;;21.64;100.00
11444;BME280;5778;47.856;12.154;2023-07-31T07:44:37;96327.75;;;21.57;100.00
11444;BME280;5778;47.856;12.154;2023-07-31T07:47:04;96331.72;;;21.51;100.00
11444;BME280;5778;47.856;12.154;2023-07-31T07:49:33;96330.63;;;21.52;100.00
11444;BME280;5778;47.856;12.154;2023-07-31T07:52:00;96336.03;;;21.26;100.00
11444;BME280;5778;47.856;12.154;2023-07-31T07:54:27;96332.19;;;21.70;100.00
11444;BME280;5778;47.856;12.154;2023-07-31T07:56:54;96338.41;;;21.79;100.00
11444;BME280;5778;47.856;12.154;2023-07-31T07:59:22;96323.63;;;21.34;100.00
11444;BME280;5778;47.856;12.154;2023-07-31T08:01:49;96327.09;;;21.51;100.00
11444;BME280;5778;47.856;12.154;2023-07-31T08:04:16;96316.13;;;21.48;100.00
11444;BME280;5778;47.856;12.154;2023-07-31T08:06:43;96314.97;;;21.83;100.00
11444;BME280;5778;47.856;12.154;2023-07-31T08:09:10;96315.91;;;21.87;100.00
11444;BME280;5778;47.856;12.154;2023-07-31T08:11:37;96309.97;;;22.02;100.00
11444;BME280;5778;47.856;12.154;2023-07-31T08:14:04;96312.44;;;22.24;100.00
11444;BME280;5778;47.856;12.154;2023-07-31T08:16:33;96314.50;;;22.18;100.00
11444;BME280;5778;47.856;12.154;2023-07-31T08:19:00;96318.06;;;22.48;100.00
11444;BME280;5778;47.856;12.154;2023-07-31T08:21:27;96313.78;;;22.47;100.00
11444;BME280;5778;47.856;12.154;2023-07-31T08:23:55;96311.47;;;22.20;95.96
11444;BME280;5778;47.856;12.154;2023-07-31T08:26:22;96306.03;;;21.91;95.70
11444;BME280;5778;47.856;12.154;2023-07-31T08:28:49;96295.59;;;22.10;91.42
11444;BME280;5778;47.856;12.154;2023-07-31T08:31:16;96298.81;;;22.03;99.33
11444;BME280;5778;47.856;12.154;2023-07-31T08:33:45;96289.13;;;22.31;98.81
11444;BME280;5778;47.856;12.154;2023-07-31T08:36:12;96287.19;;;22.32;100.00
11444;BME280;5778;47.856;12.154;2023-07-31T08:38:39;96290.00;;;22.15;100.00
11444;BME280;5778;47.856;12.154;2023-07-31T08:41:06;96278.16;;;22.28;100.00
11444;BME280;5778;47.856;12.154;2023-07-31T08:43:36;96289.03;;;22.11;94.58
11444;BME280;5778;47.856;12.154;2023-07-31T08:46:04;96278.59;;;22.01;96.70
11444;BME280;5778;47.856;12.154;2023-07-31T08:48:32;96274.41;;;22.12;95.07
11444;BME280;5778;47.856;12.154;2023-07-31T08:51:00;96274.50;;;22.53;92.24
11444;BME280;5778;47.856;12.154;2023-07-31T08:53:27;96280.78;;;22.45;96.45
11444;BME280;5778;47.856;12.154;2023-07-31T08:55:54;96272.81;;;22.40;93.45
11444;BME280;5778;47.856;12.154;2023-07-31T08:58:23;96272.13;;;22.51;91.53
11444;BME280;5778;47.856;12.154;2023-07-31T09:00:51;96272.06;;;22.60;90.63
11444;BME280;5778;47.856;12.154;2023-07-31T09:03:18;96275.03;;;22.46;93.84
11444;BME280;5778;47.856;12.154;2023-07-31T09:05:46;96282.34;;;22.95;94.58
11444;BME280;5778;47.856;12.154;2023-07-31T09:08:18;96278.66;;;22.79;87.09
11444;BME280;5778;47.856;12.154;2023-07-31T09:10:46;96271.41;;;23.45;80.94
11444;BME280;5778;47.856;12.154;2023-07-31T09:13:13;96273.72;;;23.14;86.45
11444;BME280;5778;47.856;12.154;2023-07-31T09:15:43;96263.16;;;23.41;82.24
11444;BME280;5778;47.856;12.154;2023-07-31T09:18:10;96252.50;;;23.16;91.66
11444;BME280;5778;47.856;12.154;2023-07-31T09:20:37;96260.09;;;23.43;93.30
11444;BME280;5778;47.856;12.154;2023-07-31T09:23:08;96257.44;;;23.67;89.99
11444;BME280;5778;47.856;12.154;2023-07-31T09:25:37;96255.66;;;23.38;91.06
11444;BME280;5778;47.856;12.154;2023-07-31T09:28:06;96253.56;;;23.56;88.32
11444;BME280;5778;47.856;12.154;2023-07-31T09:30:45;96252.84;;;23.14;90.93
11444;BME280;5778;47.856;12.154;2023-07-31T09:33:13;96258.25;;;23.35;93.96
11444;BME280;5778;47.856;12.154;2023-07-31T09:35:41;96270.22;;;22.93;93.62
11444;BME280;5778;47.856;12.154;2023-07-31T09:38:10;96258.63;;;22.72;98.81
11444;BME280;5778;47.856;12.154;2023-07-31T09:40:40;96260.97;;;22.73;100.00
11444;BME280;5778;47.856;12.154;2023-07-31T09:43:09;96247.94;;;23.08;96.90
11444;BME280;5778;47.856;12.154;2023-07-31T09:45:38;96252.78;;;23.02;100.00
11444;BME280;5778;47.856;12.154;2023-07-31T09:48:08;96257.28;;;22.78;100.00
11444;BME280;5778;47.856;12.154;2023-07-31T09:50:37;96246.63;;;22.52;100.00
11444;BME280;5778;47.856;12.154;2023-07-31T09:53:05;96241.94;;;22.82;100.00
11444;BME280;5778;47.856;12.154;2023-07-31T09:55:32;96244.91;;;22.89;100.00
11444;BME280;5778;47.856;12.154;2023-07-31T09:58:03;96239.22;;;22.82;100.00
11444;BME280;5778;47.856;12.154;2023-07-31T10:00:31;96233.59;;;22.87;100.00
11444;BME280;5778;47.856;12.154;2023-07-31T10:02:59;96244.19;;;22.59;100.00
11444;BME280;5778;47.856;12.154;2023-07-31T10:05:31;96225.91;;;23.09;100.00
11444;BME280;5778;47.856;12.154;2023-07-31T10:08:00;96228.28;;;23.31;100.00
11444;BME280;5778;47.856;12.154;2023-07-31T10:10:27;96228.31;;;23.55;100.00
11444;BME280;5778;47.856;12.154;2023-07-31T10:12:56;96215.13;;;23.01;100.00
11444;BME280;5778;47.856;12.154;2023-07-31T10:15:25;96226.97;;;23.17;100.00
11444;BME280;5778;47.856;12.154;2023-07-31T10:17:52;96222.53;;;22.92;100.00
11444;BME280;5778;47.856;12.154;2023-07-31T10:20:21;96214.91;;;23.26;100.00
11444;BME280;5778;47.856;12.154;2023-07-31T10:22:48;96206.88;;;23.62;100.00
11444;BME280;5778;47.856;12.154;2023-07-31T10:25:15;96209.09;;;23.48;98.49
11444;BME280;5778;47.856;12.154;2023-07-31T10:27:42;96203.56;;;23.69;100.00
11444;BME280;5778;47.856;12.154;2023-07-31T10:30:11;96204.31;;;24.02;99.10
11444;BME280;5778;47.856;12.154;2023-07-31T10:32:40;96202.97;;;24.08;91.53
11444;BME280;5778;47.856;12.154;2023-07-31T10:35:09;96205.41;;;24.73;93.24
11444;BME280;5778;47.856;12.154;2023-07-31T10:37:37;96195.84;;;24.79;99.97
11444;BME280;5778;47.856;12.154;2023-07-31T10:40:06;96192.94;;;24.48;85.95
11444;BME280;5778;47.856;12.154;2023-07-31T10:42:37;96188.47;;;24.04;95.02
11444;BME280;5778;47.856;12.154;2023-07-31T10:45:07;96186.50;;;23.56;96.38
11444;BME280;5778;47.856;12.154;2023-07-31T10:47:42;96187.47;;;23.96;97.16
11444;BME280;5778;47.856;12.154;2023-07-31T10:50:16;96180.06;;;24.33;97.39
11444;BME280;5778;47.856;12.154;2023-07-31T10:52:47;96176.44;;;24.92;90.64
11444;BME280;5778;47.856;12.154;2023-07-31T10:55:16;96179.47;;;24.51;88.15
11444;BME280;5778;47.856;12.154;2023-07-31T10:57:48;96181.00;;;24.76;77.95
11444;BME280;5778;47.856;12.154;2023-07-31T11:00:20;96177.97;;;25.48;73.66
11444;BME280;5778;47.856;12.154;2023-07-31T11:03:06;96170.69;;;25.52;75.87
11444;BME280;5778;47.856;12.154;2023-07-31T11:05:46;96165.16;;;25.80;66.73
11444;BME280;5778;47.856;12.154;2023-07-31T11:08:14;96157.75;;;26.27;76.16
11444;BME280;5778;47.856;12.154;2023-07-31T11:10:42;96159.72;;;26.80;65.02
11444;BME280;5778;47.856;12.154;2023-07-31T11:13:09;96154.84;;;27.30;67.96
11444;BME280;5778;47.856;12.154;2023-07-31T11:15:36;96162.28;;;26.73;56.95
11444;BME280;5778;47.856;12.154;2023-07-31T11:18:04;96153.72;;;26.05;66.20
11444;BME280;5778;47.856;12.154;2023-07-31T11:20:34;96161.75;;;25.98;60.97
11444;BME280;5778;47.856;12.154;2023-07-31T11:23:02;96146.78;;;25.46;65.26
11444;BME280;5778;47.856;12.154;2023-07-31T11:25:29;96141.00;;;25.63;67.97
11444;BME280;5778;47.856;12.154;2023-07-31T11:27:57;96143.38;;;25.95;62.78
11444;BME280;5778;47.856;12.154;2023-07-31T11:30:24;96135.34;;;26.71;68.20
11444;BME280;5778;47.856;12.154;2023-07-31T11:32:51;96137.69;;;26.54;56.58
11444;BME280;5778;47.856;12.154;2023-07-31T11:35:19;96131.41;;;26.00;54.34
11444;BME280;5778;47.856;12.154;2023-07-31T11:37:47;96124.56;;;26.59;54.66
11444;BME280;5778;47.856;12.154;2023-07-31T11:40:15;96129.13;;;26.36;54.11
11444;BME280;5778;47.856;12.154;2023-07-31T11:42:41;96129.56;;;25.42;58.78
11444;BME280;5778;47.856;12.154;2023-07-31T11:45:09;96120.88;;;25.52;58.51
11444;BME280;5778;47.856;12.154;2023-07-31T11:47:37;96120.97;;;24.69;58.57
11444;BME280;5778;47.856;12.154;2023-07-31T11:50:06;96107.75;;;25.88;65.91
11444;BME280;5778;47.856;12.154;2023-07-31T11:52:38;96105.22;;;27.06;62.78
11444;BME280;5778;47.856;12.154;2023-07-31T11:55:08;96096.66;;;26.66;51.23
11444;BME280;5778;47.856;12.154;2023-07-31T11:57:39;96107.25;;;25.98;52.15
11444;BME280;5778;47.856;12.154;2023-07-31T12:00:07;96094.56;;;25.90;52.54
11444;BME280;5778;47.856;12.154;2023-07-31T12:02:37;96095.13;;;25.80;52.73
11444;BME280;5778;47.856;12.154;2023-07-31T12:05:05;96088.34;;;26.43;52.37
11444;BME280;5778;47.856;12.154;2023-07-31T12:07:49;96089.47;;;26.58;50.32
11444;BME280;5778;47.856;12.154;2023-07-31T12:10:27;96080.00;;;26.71;51.73
11444;BME280;5778;47.856;12.154;2023-07-31T12:13:03;96066.63;;;26.85;51.06
11444;BME280;5778;47.856;12.154;2023-07-31T12:15:34;96064.63;;;26.44;47.11
11444;BME280;5778;47.856;12.154;2023-07-31T12:18:05;96061.53;;;26.45;50.84
11444;BME280;5778;47.856;12.154;2023-07-31T12:20:33;96063.94;;;25.47;51.78
11444;BME280;5778;47.856;12.154;2023-07-31T12:23:02;96053.53;;;25.99;50.06
11444;BME280;5778;47.856;12.154;2023-07-31T12:25:32;96049.41;;;26.43;53.75
11444;BME280;5778;47.856;12.154;2023-07-31T12:28:06;96045.41;;;26.75;50.85
11444;BME280;5778;47.856;12.154;2023-07-31T12:30:37;96037.59;;;26.01;48.25
11444;BME280;5778;47.856;12.154;2023-07-31T12:33:05;96035.47;;;26.29;51.12
11444;BME280;5778;47.856;12.154;2023-07-31T12:35:37;96034.19;;;26.23;50.63
11444;BME280;5778;47.856;12.154;2023-07-31T12:38:06;96034.47;;;25.99;51.49
11444;BME280;5778;47.856;12.154;2023-07-31T12:40:33;96022.94;;;26.24;48.82
11444;BME280;5778;47.856;12.154;2023-07-31T12:43:01;96017.81;;;26.23;49.19
11444;BME280;5778;47.856;12.154;2023-07-31T12:45:29;96017.38;;;26.78;51.43
11444;BME280;5778;47.856;12.154;2023-07-31T12:47:56;96011.78;;;26.71;51.90
11444;BME280;5778;47.856;12.154;2023-07-31T12:50:23;96008.44;;;26.58;54.68
11444;BME280;5778;47.856;12.154;2023-07-31T12:52:51;96010.28;;;26.35;50.97
11444;BME280;5778;47.856;12.154;2023-07-31T12:55:19;95991.44;;;26.27;53.86
11444;BME280;5778;47.856;12.154;2023-07-31T12:57:46;95985.72;;;27.41;52.28